sensor_id;sensor_type;location;lat;lon;timestamp;P1;durP1;ratioP1;P2;durP2;ratioP2
44816;SDS011;30529;53.570;9.964;2022-08-01T00:01:08;8.50;;;6.73;;
44816;SDS011;30529;53.570;9.964;2022-08-01T00:03:37;7.00;;;6.40;;
44816;SDS011;30529;53.570;9.964;2022-08-01T00:06:03;8.10;;;7.20;;
44816;SDS011;30529;53.570;9.964;2022-08-01T00:08:29;8.83;;;7.20;;
44816;SDS011;30529;53.570;9.964;2022-08-01T00:10:55;7.40;;;6.33;;
44816;SDS011;30529;53.570;9.964;2022-08-01T00:13:21;8.97;;;7.10;;
44816;SDS011;30529;53.570;9.964;2022-08-01T00:15:47;9.67;;;7.97;;
44816;SDS011;30529;53.570;9.964;2022-08-01T00:18:13;8.97;;;7.70;;
44816;SDS011;30529;53.570;9.964;2022-08-01T00:20:39;8.63;;;7.80;;
44816;SDS011;30529;53.570;9.964;2022-08-01T00:23:05;9.10;;;7.77;;
44816;SDS011;30529;53.570;9.964;2022-08-01T00:25:31;8.73;;;7.43;;
44816;SDS011;30529;53.570;9.964;2022-08-01T00:28:01;8.37;;;6.97;;
44816;SDS011;30529;53.570;9.964;2022-08-01T00:30:27;8.10;;;7.30;;
44816;SDS011;30529;53.570;9.964;2022-08-01T00:32:53;9.17;;;6.90;;
44816;SDS011;30529;53.570;9.964;2022-08-01T00:35:19;9.37;;;7.27;;
44816;SDS011;30529;53.570;9.964;2022-08-01T00:37:49;8.07;;;7.27;;
44816;SDS011;30529;53.570;9.964;2022-08-01T00:40:16;8.73;;;7.20;;
44816;SDS011;30529;53.570;9.964;2022-08-01T00:42:43;8.00;;;7.17;;
44816;SDS011;30529;53.570;9.964;2022-08-01T00:45:09;9.37;;;7.53;;
44816;SDS011;30529;53.570;9.964;2022-08-01T00:47:36;8.07;;;7.27;;
44816;SDS011;30529;53.570;9.964;2022-08-01T00:50:03;8.67;;;6.77;;
44816;SDS011;30529;53.570;9.964;2022-08-01T00:52:30;7.17;;;6.47;;
44816;SDS011;30529;53.570;9.964;2022-08-01T00:54:56;7.77;;;6.83;;
44816;SDS011;30529;53.570;9.964;2022-08-01T00:57:22;6.03;;;5.40;;
44816;SDS011;30529;53.570;9.964;2022-08-01T00:59:48;6.97;;;5.30;;
44816;SDS011;30529;53.570;9.964;2022-08-01T01:02:15;6.53;;;4.93;;
44816;SDS011;30529;53.570;9.964;2022-08-01T01:04:42;4.63;;;4.17;;
44816;SDS011;30529;53.570;9.964;2022-08-01T01:16:05;6.77;;;5.47;;
44816;SDS011;30529;53.570;9.964;2022-08-01T01:18:37;6.97;;;6.00;;
44816;SDS011;30529;53.570;9.964;2022-08-01T01:21:12;8.77;;;6.13;;
44816;SDS011;30529;53.570;9.964;2022-08-01T01:27:06;7.33;;;6.07;;
44816;SDS011;30529;53.570;9.964;2022-08-01T01:29:46;8.27;;;6.97;;
44816;SDS011;30529;53.570;9.964;2022-08-01T01:32:17;9.37;;;6.00;;
44816;SDS011;30529;53.570;9.964;2022-08-01T01:34:44;10.70;;;7.47;;
44816;SDS011;30529;53.570;9.964;2022-08-01T01:37:17;9.00;;;6.83;;
44816;SDS011;30529;53.570;9.964;2022-08-01T01:39:46;8.03;;;7.07;;
44816;SDS011;30529;53.570;9.964;2022-08-01T01:42:16;10.03;;;7.30;;
44816;SDS011;30529;53.570;9.964;2022-08-01T01:44:44;9.33;;;7.20;;
44816;SDS011;30529;53.570;9.964;2022-08-01T01:47:13;8.10;;;6.80;;
44816;SDS011;30529;53.570;9.964;2022-08-01T01:49:41;9.97;;;7.50;;
44816;SDS011;30529;53.570;9.964;2022-08-01T01:52:11;9.70;;;7.57;;
44816;SDS011;30529;53.570;9.964;2022-08-01T01:54:42;10.30;;;6.93;;
44816;SDS011;30529;53.570;9.964;2022-08-01T01:57:12;8.70;;;7.80;;
44816;SDS011;30529;53.570;9.964;2022-08-01T01:59:40;10.27;;;7.10;;
44816;SDS011;30529;53.570;9.964;2022-08-01T02:02:07;9.83;;;7.83;;
44816;SDS011;30529;53.570;9.964;2022-08-01T02:04:35;10.30;;;7.40;;
44816;SDS011;30529;53.570;9.964;2022-08-01T02:07:05;8.83;;;6.80;;
44816;SDS011;30529;53.570;9.964;2022-08-01T02:09:34;11.27;;;6.97;;
44816;SDS011;30529;53.570;9.964;2022-08-01T02:12:03;7.13;;;6.43;;
44816;SDS011;30529;53.570;9.964;2022-08-01T02:14:35;10.13;;;6.17;;
44816;SDS011;30529;53.570;9.964;2022-08-01T02:17:02;8.07;;;6.43;;
44816;SDS011;30529;53.570;9.964;2022-08-01T02:19:29;7.77;;;6.10;;
44816;SDS011;30529;53.570;9.964;2022-08-01T02:22:04;6.10;;;5.50;;
44816;SDS011;30529;53.570;9.964;2022-08-01T02:24:44;8.23;;;6.13;;
44816;SDS011;30529;53.570;9.964;2022-08-01T02:27:19;9.20;;;6.50;;
44816;SDS011;30529;53.570;9.964;2022-08-01T02:30:03;7.33;;;6.20;;
44816;SDS011;30529;53.570;9.964;2022-08-01T02:32:34;9.37;;;6.90;;
44816;SDS011;30529;53.570;9.964;2022-08-01T02:35:05;7.27;;;5.20;;
44816;SDS011;30529;53.570;9.964;2022-08-01T02:37:36;6.00;;;5.20;;
44816;SDS011;30529;53.570;9.964;2022-08-01T02:40:04;8.40;;;5.57;;
44816;SDS011;30529;53.570;9.964;2022-08-01T02:42:33;7.80;;;5.93;;
44816;SDS011;30529;53.570;9.964;2022-08-01T02:45:03;8.70;;;5.60;;
44816;SDS011;30529;53.570;9.964;2022-08-01T02:47:30;7.37;;;5.53;;
44816;SDS011;30529;53.570;9.964;2022-08-01T02:49:58;6.57;;;5.90;;
44816;SDS011;30529;53.570;9.964;2022-08-01T02:52:26;7.50;;;5.37;;
44816;SDS011;30529;53.570;9.964;2022-08-01T02:54:54;8.03;;;5.60;;
44816;SDS011;30529;53.570;9.964;2022-08-01T02:57:22;6.97;;;5.37;;
44816;SDS011;30529;53.570;9.964;2022-08-01T02:59:50;8.37;;;6.67;;
44816;SDS011;30529;53.570;9.964;2022-08-01T03:02:18;10.30;;;6.47;;
44816;SDS011;30529;53.570;9.964;2022-08-01T03:04:45;10.17;;;6.47;;
44816;SDS011;30529;53.570;9.964;2022-08-01T03:07:12;7.23;;;5.93;;
44816;SDS011;30529;53.570;9.964;2022-08-01T03:09:40;10.10;;;5.87;;
44816;SDS011;30529;53.570;9.964;2022-08-01T03:12:27;7.20;;;5.90;;
44816;SDS011;30529;53.570;9.964;2022-08-01T03:14:57;9.20;;;5.93;;
44816;SDS011;30529;53.570;9.964;2022-08-01T03:17:26;8.43;;;5.53;;
44816;SDS011;30529;53.570;9.964;2022-08-01T03:19:54;7.33;;;5.53;;
44816;SDS011;30529;53.570;9.964;2022-08-01T03:22:23;6.90;;;5.40;;
44816;SDS011;30529;53.570;9.964;2022-08-01T03:24:52;7.40;;;5.00;;
44816;SDS011;30529;53.570;9.964;2022-08-01T03:27:19;8.67;;;5.60;;
44816;SDS011;30529;53.570;9.964;2022-08-01T03:29:48;9.50;;;5.10;;
44816;SDS011;30529;53.570;9.964;2022-08-01T03:32:16;8.97;;;5.40;;
44816;SDS011;30529;53.570;9.964;2022-08-01T03:34:43;6.63;;;5.80;;
44816;SDS011;30529;53.570;9.964;2022-08-01T03:37:16;8.33;;;5.70;;
44816;SDS011;30529;53.570;9.964;2022-08-01T03:39:55;6.37;;;5.47;;
44816;SDS011;30529;53.570;9.964;2022-08-01T03:42:35;6.83;;;5.80;;
44816;SDS011;30529;53.570;9.964;2022-08-01T03:45:08;6.63;;;4.83;;
44816;SDS011;30529;53.570;9.964;2022-08-01T03:47:42;6.10;;;4.87;;
44816;SDS011;30529;53.570;9.964;2022-08-01T03:50:13;3.77;;;3.30;;
44816;SDS011;30529;53.570;9.964;2022-08-01T03:52:45;5.80;;;3.83;;
44816;SDS011;30529;53.570;9.964;2022-08-01T03:55:12;5.97;;;3.90;;
44816;SDS011;30529;53.570;9.964;2022-08-01T03:57:42;5.67;;;3.83;;
44816;SDS011;30529;53.570;9.964;2022-08-01T04:00:10;5.67;;;3.83;;
44816;SDS011;30529;53.570;9.964;2022-08-01T04:02:36;7.90;;;3.80;;
44816;SDS011;30529;53.570;9.964;2022-08-01T04:05:03;5.63;;;3.23;;
44816;SDS011;30529;53.570;9.964;2022-08-01T04:07:31;5.80;;;3.70;;
44816;SDS011;30529;53.570;9.964;2022-08-01T04:09:58;7.27;;;4.30;;
44816;SDS011;30529;53.570;9.964;2022-08-01T04:12:24;4.77;;;3.90;;
44816;SDS011;30529;53.570;9.964;2022-08-01T04:14:50;5.10;;;4.43;;
44816;SDS011;30529;53.570;9.964;2022-08-01T04:17:16;7.70;;;4.27;;
44816;SDS011;30529;53.570;9.964;2022-08-01T04:19:43;6.27;;;3.63;;
44816;SDS011;30529;53.570;9.964;2022-08-01T04:22:11;6.27;;;3.30;;
44816;SDS011;30529;53.570;9.964;2022-08-01T04:24:38;6.30;;;3.87;;
44816;SDS011;30529;53.570;9.964;2022-08-01T04:27:08;5.50;;;3.57;;
44816;SDS011;30529;53.570;9.964;2022-08-01T04:29:38;5.70;;;3.43;;
44816;SDS011;30529;53.570;9.964;2022-08-01T04:32:07;5.97;;;3.37;;
44816;SDS011;30529;53.570;9.964;2022-08-01T04:34:35;5.23;;;3.30;;
44816;SDS011;30529;53.570;9.964;2022-08-01T04:37:05;4.67;;;3.23;;
44816;SDS011;30529;53.570;9.964;2022-08-01T04:39:35;7.60;;;3.20;;
44816;SDS011;30529;53.570;9.964;2022-08-01T04:42:05;5.87;;;3.37;;
44816;SDS011;30529;53.570;9.964;2022-08-01T04:44:32;8.40;;;2.67;;
44816;SDS011;30529;53.570;9.964;2022-08-01T04:46:59;4.33;;;2.80;;
44816;SDS011;30529;53.570;9.964;2022-08-01T04:49:32;3.63;;;2.40;;
44816;SDS011;30529;53.570;9.964;2022-08-01T04:51:58;5.53;;;2.60;;
44816;SDS011;30529;53.570;9.964;2022-08-01T04:54:28;5.83;;;2.60;;
44816;SDS011;30529;53.570;9.964;2022-08-01T04:56:57;3.57;;;2.37;;
44816;SDS011;30529;53.570;9.964;2022-08-01T04:59:28;4.53;;;2.37;;
44816;SDS011;30529;53.570;9.964;2022-08-01T05:02:08;3.20;;;1.83;;
44816;SDS011;30529;53.570;9.964;2022-08-01T05:04:39;3.53;;;1.67;;
44816;SDS011;30529;53.570;9.964;2022-08-01T05:07:06;2.73;;;1.63;;
44816;SDS011;30529;53.570;9.964;2022-08-01T05:09:32;5.73;;;1.87;;
44816;SDS011;30529;53.570;9.964;2022-08-01T05:11:59;2.43;;;1.50;;
44816;SDS011;30529;53.570;9.964;2022-08-01T05:14:27;1.80;;;1.53;;
44816;SDS011;30529;53.570;9.964;2022-08-01T05:17:00;2.17;;;1.47;;
44816;SDS011;30529;53.570;9.964;2022-08-01T05:19:29;2.63;;;1.30;;
44816;SDS011;30529;53.570;9.964;2022-08-01T05:21:59;4.53;;;1.53;;
44816;SDS011;30529;53.570;9.964;2022-08-01T05:24:29;1.63;;;1.47;;
44816;SDS011;30529;53.570;9.964;2022-08-01T05:26:57;2.10;;;1.37;;
44816;SDS011;30529;53.570;9.964;2022-08-01T05:29:23;2.27;;;1.47;;
44816;SDS011;30529;53.570;9.964;2022-08-01T05:31:50;4.20;;;2.13;;
44816;SDS011;30529;53.570;9.964;2022-08-01T05:34:17;4.40;;;2.27;;
44816;SDS011;30529;53.570;9.964;2022-08-01T05:36:43;4.13;;;2.03;;
44816;SDS011;30529;53.570;9.964;2022-08-01T05:39:10;3.90;;;2.47;;
44816;SDS011;30529;53.570;9.964;2022-08-01T05:41:36;4.03;;;2.57;;
44816;SDS011;30529;53.570;9.964;2022-08-01T05:44:05;2.70;;;2.50;;
44816;SDS011;30529;53.570;9.964;2022-08-01T05:46:32;3.80;;;2.77;;
44816;SDS011;30529;53.570;9.964;2022-08-01T05:48:59;3.50;;;3.07;;
44816;SDS011;30529;53.570;9.964;2022-08-01T05:51:26;3.60;;;2.77;;
44816;SDS011;30529;53.570;9.964;2022-08-01T05:53:53;3.80;;;2.40;;
44816;SDS011;30529;53.570;9.964;2022-08-01T05:56:19;2.63;;;2.43;;
44816;SDS011;30529;53.570;9.964;2022-08-01T05:58:47;6.00;;;3.03;;
44816;SDS011;30529;53.570;9.964;2022-08-01T06:01:15;4.10;;;3.10;;
44816;SDS011;30529;53.570;9.964;2022-08-01T06:03:41;7.43;;;4.17;;
44816;SDS011;30529;53.570;9.964;2022-08-01T06:06:07;7.07;;;4.33;;
44816;SDS011;30529;53.570;9.964;2022-08-01T06:08:33;9.20;;;4.53;;
44816;SDS011;30529;53.570;9.964;2022-08-01T06:10:59;6.97;;;4.50;;
44816;SDS011;30529;53.570;9.964;2022-08-01T06:13:26;7.83;;;5.10;;
44816;SDS011;30529;53.570;9.964;2022-08-01T06:15:52;9.13;;;5.43;;
44816;SDS011;30529;53.570;9.964;2022-08-01T06:18:18;9.07;;;5.17;;
44816;SDS011;30529;53.570;9.964;2022-08-01T06:20:45;8.80;;;3.63;;
44816;SDS011;30529;53.570;9.964;2022-08-01T06:23:11;4.63;;;3.67;;
44816;SDS011;30529;53.570;9.964;2022-08-01T06:25:37;8.57;;;4.30;;
44816;SDS011;30529;53.570;9.964;2022-08-01T06:28:03;7.33;;;4.40;;
44816;SDS011;30529;53.570;9.964;2022-08-01T06:30:29;6.53;;;4.50;;
44816;SDS011;30529;53.570;9.964;2022-08-01T06:32:55;5.17;;;3.90;;
44816;SDS011;30529;53.570;9.964;2022-08-01T06:35:24;7.33;;;4.40;;
44816;SDS011;30529;53.570;9.964;2022-08-01T06:37:50;7.90;;;4.10;;
44816;SDS011;30529;53.570;9.964;2022-08-01T06:40:16;8.27;;;4.53;;
44816;SDS011;30529;53.570;9.964;2022-08-01T06:42:43;8.67;;;4.33;;
44816;SDS011;30529;53.570;9.964;2022-08-01T06:45:11;9.63;;;3.90;;
44816;SDS011;30529;53.570;9.964;2022-08-01T06:47:38;9.87;;;4.37;;
44816;SDS011;30529;53.570;9.964;2022-08-01T06:50:06;6.57;;;3.57;;
44816;SDS011;30529;53.570;9.964;2022-08-01T06:52:33;9.90;;;3.70;;
44816;SDS011;30529;53.570;9.964;2022-08-01T06:55:00;11.23;;;3.97;;
44816;SDS011;30529;53.570;9.964;2022-08-01T06:57:27;7.20;;;3.47;;
44816;SDS011;30529;53.570;9.964;2022-08-01T06:59:53;7.77;;;3.50;;
44816;SDS011;30529;53.570;9.964;2022-08-01T07:02:20;9.73;;;3.67;;
44816;SDS011;30529;53.570;9.964;2022-08-01T07:04:46;5.63;;;3.00;;
44816;SDS011;30529;53.570;9.964;2022-08-01T07:07:13;7.30;;;3.57;;
44816;SDS011;30529;53.570;9.964;2022-08-01T07:09:39;8.40;;;3.70;;
44816;SDS011;30529;53.570;9.964;2022-08-01T07:12:08;6.40;;;3.30;;
44816;SDS011;30529;53.570;9.964;2022-08-01T07:14:34;9.57;;;3.40;;
44816;SDS011;30529;53.570;9.964;2022-08-01T07:17:00;8.80;;;3.20;;
44816;SDS011;30529;53.570;9.964;2022-08-01T07:19:26;5.27;;;3.20;;
44816;SDS011;30529;53.570;9.964;2022-08-01T07:21:53;6.83;;;3.20;;
44816;SDS011;30529;53.570;9.964;2022-08-01T07:24:19;7.87;;;4.13;;
44816;SDS011;30529;53.570;9.964;2022-08-01T07:26:47;11.47;;;4.63;;
44816;SDS011;30529;53.570;9.964;2022-08-01T07:29:14;10.47;;;4.80;;
44816;SDS011;30529;53.570;9.964;2022-08-01T07:31:40;11.40;;;5.07;;
44816;SDS011;30529;53.570;9.964;2022-08-01T07:34:06;17.33;;;5.30;;
44816;SDS011;30529;53.570;9.964;2022-08-01T07:36:33;8.10;;;4.30;;
44816;SDS011;30529;53.570;9.964;2022-08-01T07:38:59;14.47;;;4.13;;
44816;SDS011;30529;53.570;9.964;2022-08-01T07:41:25;11.27;;;3.77;;
44816;SDS011;30529;53.570;9.964;2022-08-01T07:43:51;14.80;;;4.33;;
44816;SDS011;30529;53.570;9.964;2022-08-01T07:46:17;10.57;;;4.07;;
44816;SDS011;30529;53.570;9.964;2022-08-01T07:48:43;13.83;;;3.40;;
44816;SDS011;30529;53.570;9.964;2022-08-01T07:51:09;9.80;;;3.20;;
44816;SDS011;30529;53.570;9.964;2022-08-01T07:53:35;10.53;;;4.13;;
44816;SDS011;30529;53.570;9.964;2022-08-01T07:56:02;13.27;;;3.27;;
44816;SDS011;30529;53.570;9.964;2022-08-01T07:58:31;9.40;;;2.87;;
44816;SDS011;30529;53.570;9.964;2022-08-01T08:00:58;8.80;;;2.53;;
44816;SDS011;30529;53.570;9.964;2022-08-01T08:03:25;6.17;;;2.00;;
44816;SDS011;30529;53.570;9.964;2022-08-01T08:05:52;9.63;;;2.20;;
44816;SDS011;30529;53.570;9.964;2022-08-01T08:08:18;8.20;;;1.93;;
44816;SDS011;30529;53.570;9.964;2022-08-01T08:10:44;7.23;;;1.90;;
44816;SDS011;30529;53.570;9.964;2022-08-01T08:13:10;10.67;;;2.50;;
44816;SDS011;30529;53.570;9.964;2022-08-01T08:15:36;6.60;;;1.80;;
44816;SDS011;30529;53.570;9.964;2022-08-01T08:18:02;6.10;;;1.83;;
44816;SDS011;30529;53.570;9.964;2022-08-01T08:20:29;9.70;;;1.80;;
44816;SDS011;30529;53.570;9.964;2022-08-01T08:22:56;5.93;;;1.67;;
44816;SDS011;30529;53.570;9.964;2022-08-01T08:25:24;11.43;;;2.17;;
44816;SDS011;30529;53.570;9.964;2022-08-01T08:27:51;7.30;;;1.87;;
44816;SDS011;30529;53.570;9.964;2022-08-01T08:30:17;7.27;;;1.87;;
44816;SDS011;30529;53.570;9.964;2022-08-01T08:32:44;11.57;;;2.70;;
44816;SDS011;30529;53.570;9.964;2022-08-01T08:35:10;9.20;;;1.93;;
44816;SDS011;30529;53.570;9.964;2022-08-01T08:37:36;10.13;;;1.90;;
44816;SDS011;30529;53.570;9.964;2022-08-01T08:40:03;9.43;;;2.30;;
44816;SDS011;30529;53.570;9.964;2022-08-01T08:42:30;8.67;;;2.13;;
44816;SDS011;30529;53.570;9.964;2022-08-01T08:44:57;10.40;;;2.43;;
44816;SDS011;30529;53.570;9.964;2022-08-01T08:47:23;10.37;;;2.57;;
44816;SDS011;30529;53.570;9.964;2022-08-01T08:49:53;5.33;;;1.70;;
44816;SDS011;30529;53.570;9.964;2022-08-01T08:52:21;7.73;;;2.63;;
44816;SDS011;30529;53.570;9.964;2022-08-01T08:54:48;6.70;;;1.90;;
44816;SDS011;30529;53.570;9.964;2022-08-01T08:57:15;5.20;;;1.90;;
44816;SDS011;30529;53.570;9.964;2022-08-01T08:59:44;5.57;;;1.87;;
44816;SDS011;30529;53.570;9.964;2022-08-01T09:02:11;8.67;;;1.90;;
44816;SDS011;30529;53.570;9.964;2022-08-01T09:04:38;7.97;;;1.97;;
44816;SDS011;30529;53.570;9.964;2022-08-01T09:07:05;6.63;;;1.70;;
44816;SDS011;30529;53.570;9.964;2022-08-01T09:09:31;6.27;;;1.60;;
44816;SDS011;30529;53.570;9.964;2022-08-01T09:11:58;9.27;;;2.13;;
44816;SDS011;30529;53.570;9.964;2022-08-01T09:14:24;5.03;;;1.97;;
44816;SDS011;30529;53.570;9.964;2022-08-01T09:17:05;6.90;;;2.20;;
44816;SDS011;30529;53.570;9.964;2022-08-01T09:19:34;8.30;;;1.60;;
44816;SDS011;30529;53.570;9.964;2022-08-01T09:22:03;4.53;;;1.70;;
44816;SDS011;30529;53.570;9.964;2022-08-01T09:24:31;6.53;;;1.73;;
44816;SDS011;30529;53.570;9.964;2022-08-01T09:26:57;7.73;;;1.93;;
44816;SDS011;30529;53.570;9.964;2022-08-01T09:29:25;11.17;;;2.20;;
44816;SDS011;30529;53.570;9.964;2022-08-01T09:31:56;8.27;;;2.67;;
44816;SDS011;30529;53.570;9.964;2022-08-01T09:34:28;11.33;;;2.77;;
44816;SDS011;30529;53.570;9.964;2022-08-01T09:36:59;7.27;;;1.60;;
44816;SDS011;30529;53.570;9.964;2022-08-01T09:39:27;8.93;;;2.40;;
44816;SDS011;30529;53.570;9.964;2022-08-01T09:41:56;9.13;;;2.10;;
44816;SDS011;30529;53.570;9.964;2022-08-01T09:44:40;6.83;;;1.90;;
44816;SDS011;30529;53.570;9.964;2022-08-01T09:47:07;12.20;;;2.40;;
44816;SDS011;30529;53.570;9.964;2022-08-01T09:49:34;12.53;;;2.87;;
44816;SDS011;30529;53.570;9.964;2022-08-01T09:52:15;4.87;;;2.00;;
44816;SDS011;30529;53.570;9.964;2022-08-01T09:54:43;8.80;;;2.07;;
44816;SDS011;30529;53.570;9.964;2022-08-01T09:57:25;7.00;;;2.33;;
44816;SDS011;30529;53.570;9.964;2022-08-01T09:59:52;9.00;;;2.40;;
44816;SDS011;30529;53.570;9.964;2022-08-01T10:04:55;10.20;;;2.67;;
44816;SDS011;30529;53.570;9.964;2022-08-01T10:07:21;11.00;;;2.73;;
44816;SDS011;30529;53.570;9.964;2022-08-01T10:09:48;11.83;;;2.30;;
44816;SDS011;30529;53.570;9.964;2022-08-01T10:12:15;8.47;;;3.10;;
44816;SDS011;30529;53.570;9.964;2022-08-01T10:14:46;13.17;;;2.70;;
44816;SDS011;30529;53.570;9.964;2022-08-01T10:17:18;10.27;;;2.77;;
44816;SDS011;30529;53.570;9.964;2022-08-01T10:19:45;10.40;;;2.47;;
44816;SDS011;30529;53.570;9.964;2022-08-01T10:22:14;10.70;;;2.47;;
44816;SDS011;30529;53.570;9.964;2022-08-01T10:24:46;11.03;;;2.60;;
44816;SDS011;30529;53.570;9.964;2022-08-01T10:27:13;7.87;;;2.00;;
44816;SDS011;30529;53.570;9.964;2022-08-01T10:29:42;7.37;;;2.47;;
44816;SDS011;30529;53.570;9.964;2022-08-01T10:32:34;9.97;;;2.40;;
44816;SDS011;30529;53.570;9.964;2022-08-01T10:35:02;7.60;;;2.10;;
44816;SDS011;30529;53.570;9.964;2022-08-01T10:37:30;8.33;;;2.00;;
44816;SDS011;30529;53.570;9.964;2022-08-01T10:39:56;7.40;;;2.17;;
44816;SDS011;30529;53.570;9.964;2022-08-01T10:42:22;5.73;;;1.40;;
44816;SDS011;30529;53.570;9.964;2022-08-01T10:44:49;8.13;;;2.33;;
44816;SDS011;30529;53.570;9.964;2022-08-01T10:47:21;8.07;;;1.63;;
44816;SDS011;30529;53.570;9.964;2022-08-01T10:49:56;10.97;;;2.20;;
44816;SDS011;30529;53.570;9.964;2022-08-01T10:52:29;8.73;;;2.17;;
44816;SDS011;30529;53.570;9.964;2022-08-01T10:55:03;6.63;;;1.50;;
44816;SDS011;30529;53.570;9.964;2022-08-01T10:57:42;9.73;;;2.13;;
44816;SDS011;30529;53.570;9.964;2022-08-01T11:00:19;13.27;;;2.13;;
44816;SDS011;30529;53.570;9.964;2022-08-01T11:02:56;6.47;;;1.87;;
44816;SDS011;30529;53.570;9.964;2022-08-01T11:05:27;8.43;;;1.67;;
44816;SDS011;30529;53.570;9.964;2022-08-01T11:08:09;6.67;;;1.63;;
44816;SDS011;30529;53.570;9.964;2022-08-01T11:10:38;8.13;;;1.80;;
44816;SDS011;30529;53.570;9.964;2022-08-01T11:13:05;5.67;;;1.60;;
44816;SDS011;30529;53.570;9.964;2022-08-01T11:15:36;5.27;;;1.77;;
44816;SDS011;30529;53.570;9.964;2022-08-01T11:18:29;5.60;;;2.00;;
44816;SDS011;30529;53.570;9.964;2022-08-01T11:20:54;7.97;;;2.00;;
44816;SDS011;30529;53.570;9.964;2022-08-01T11:23:23;6.43;;;2.07;;
44816;SDS011;30529;53.570;9.964;2022-08-01T11:33:18;9.33;;;1.60;;
44816;SDS011;30529;53.570;9.964;2022-08-01T11:38:40;6.70;;;1.47;;
44816;SDS011;30529;53.570;9.964;2022-08-01T11:43:57;7.83;;;1.70;;
44816;SDS011;30529;53.570;9.964;2022-08-01T11:54:50;6.43;;;1.80;;
44816;SDS011;30529;53.570;9.964;2022-08-01T11:57:34;4.70;;;1.23;;
44816;SDS011;30529;53.570;9.964;2022-08-01T12:00:23;8.77;;;1.87;;
44816;SDS011;30529;53.570;9.964;2022-08-01T12:02:56;6.03;;;1.57;;
44816;SDS011;30529;53.570;9.964;2022-08-01T12:05:30;7.23;;;1.33;;
44816;SDS011;30529;53.570;9.964;2022-08-01T12:07:59;8.70;;;2.20;;
44816;SDS011;30529;53.570;9.964;2022-08-01T12:10:27;3.20;;;1.40;;
44816;SDS011;30529;53.570;9.964;2022-08-01T12:13:00;5.03;;;1.87;;
44816;SDS011;30529;53.570;9.964;2022-08-01T12:15:32;7.50;;;1.40;;
44816;SDS011;30529;53.570;9.964;2022-08-01T12:18:03;4.63;;;1.63;;
44816;SDS011;30529;53.570;9.964;2022-08-01T12:20:32;4.50;;;1.40;;
44816;SDS011;30529;53.570;9.964;2022-08-01T12:23:03;5.17;;;1.63;;
44816;SDS011;30529;53.570;9.964;2022-08-01T12:25:34;7.33;;;1.93;;
44816;SDS011;30529;53.570;9.964;2022-08-01T12:28:01;7.67;;;1.40;;
44816;SDS011;30529;53.570;9.964;2022-08-01T12:30:32;6.77;;;1.43;;
44816;SDS011;30529;53.570;9.964;2022-08-01T12:33:00;5.57;;;1.33;;
44816;SDS011;30529;53.570;9.964;2022-08-01T12:35:31;3.97;;;1.27;;
44816;SDS011;30529;53.570;9.964;2022-08-01T12:38:04;7.70;;;1.70;;
44816;SDS011;30529;53.570;9.964;2022-08-01T12:40:33;4.30;;;1.30;;
44816;SDS011;30529;53.570;9.964;2022-08-01T12:43:02;7.50;;;1.37;;
44816;SDS011;30529;53.570;9.964;2022-08-01T12:45:33;5.20;;;1.57;;
44816;SDS011;30529;53.570;9.964;2022-08-01T12:48:03;7.73;;;1.60;;
44816;SDS011;30529;53.570;9.964;2022-08-01T12:50:33;6.37;;;1.33;;
44816;SDS011;30529;53.570;9.964;2022-08-01T12:53:01;5.63;;;1.30;;
44816;SDS011;30529;53.570;9.964;2022-08-01T12:55:28;4.60;;;1.50;;
44816;SDS011;30529;53.570;9.964;2022-08-01T12:58:04;6.63;;;1.60;;
44816;SDS011;30529;53.570;9.964;2022-08-01T13:00:35;6.97;;;1.70;;
44816;SDS011;30529;53.570;9.964;2022-08-01T13:03:11;7.03;;;1.50;;
44816;SDS011;30529;53.570;9.964;2022-08-01T13:08:23;8.23;;;1.77;;
44816;SDS011;30529;53.570;9.964;2022-08-01T13:11:00;7.30;;;1.27;;
44816;SDS011;30529;53.570;9.964;2022-08-01T13:13:40;7.20;;;2.50;;
44816;SDS011;30529;53.570;9.964;2022-08-01T13:16:08;5.47;;;1.60;;
44816;SDS011;30529;53.570;9.964;2022-08-01T13:18:35;5.50;;;1.30;;
44816;SDS011;30529;53.570;9.964;2022-08-01T13:21:12;6.33;;;1.60;;
44816;SDS011;30529;53.570;9.964;2022-08-01T13:23:41;6.40;;;1.60;;
44816;SDS011;30529;53.570;9.964;2022-08-01T13:29:14;7.00;;;1.50;;
44816;SDS011;30529;53.570;9.964;2022-08-01T13:31:42;5.33;;;1.93;;
44816;SDS011;30529;53.570;9.964;2022-08-01T13:34:09;4.60;;;1.37;;
44816;SDS011;30529;53.570;9.964;2022-08-01T13:36:36;4.27;;;1.37;;
44816;SDS011;30529;53.570;9.964;2022-08-01T13:39:03;6.33;;;1.40;;
44816;SDS011;30529;53.570;9.964;2022-08-01T13:41:48;9.43;;;2.00;;
44816;SDS011;30529;53.570;9.964;2022-08-01T13:44:15;3.50;;;1.30;;
44816;SDS011;30529;53.570;9.964;2022-08-01T13:46:41;6.33;;;1.50;;
44816;SDS011;30529;53.570;9.964;2022-08-01T13:49:09;7.50;;;2.07;;
44816;SDS011;30529;53.570;9.964;2022-08-01T13:51:37;4.03;;;1.10;;
44816;SDS011;30529;53.570;9.964;2022-08-01T13:54:05;5.93;;;1.40;;
44816;SDS011;30529;53.570;9.964;2022-08-01T13:56:31;4.00;;;1.43;;
44816;SDS011;30529;53.570;9.964;2022-08-01T13:58:58;4.87;;;1.67;;
44816;SDS011;30529;53.570;9.964;2022-08-01T14:01:24;6.87;;;1.70;;
44816;SDS011;30529;53.570;9.964;2022-08-01T14:03:50;5.07;;;1.60;;
44816;SDS011;30529;53.570;9.964;2022-08-01T14:06:17;4.50;;;1.50;;
44816;SDS011;30529;53.570;9.964;2022-08-01T14:08:45;6.93;;;1.47;;
44816;SDS011;30529;53.570;9.964;2022-08-01T14:11:12;2.77;;;0.97;;
44816;SDS011;30529;53.570;9.964;2022-08-01T14:13:38;6.80;;;1.73;;
44816;SDS011;30529;53.570;9.964;2022-08-01T14:16:06;4.90;;;1.60;;
44816;SDS011;30529;53.570;9.964;2022-08-01T14:18:32;4.77;;;1.23;;
44816;SDS011;30529;53.570;9.964;2022-08-01T14:20:59;5.00;;;1.23;;
44816;SDS011;30529;53.570;9.964;2022-08-01T14:23:25;4.40;;;1.50;;
44816;SDS011;30529;53.570;9.964;2022-08-01T14:25:52;7.87;;;1.30;;
44816;SDS011;30529;53.570;9.964;2022-08-01T14:28:18;6.70;;;1.40;;
44816;SDS011;30529;53.570;9.964;2022-08-01T14:30:45;5.47;;;1.67;;
44816;SDS011;30529;53.570;9.964;2022-08-01T14:33:11;8.07;;;1.20;;
44816;SDS011;30529;53.570;9.964;2022-08-01T14:35:38;5.57;;;1.40;;
44816;SDS011;30529;53.570;9.964;2022-08-01T14:38:05;6.77;;;1.53;;
44816;SDS011;30529;53.570;9.964;2022-08-01T14:40:31;4.27;;;1.50;;
44816;SDS011;30529;53.570;9.964;2022-08-01T14:42:57;5.87;;;1.73;;
44816;SDS011;30529;53.570;9.964;2022-08-01T14:45:23;9.43;;;2.13;;
44816;SDS011;30529;53.570;9.964;2022-08-01T14:47:49;5.47;;;1.60;;
44816;SDS011;30529;53.570;9.964;2022-08-01T14:50:15;6.80;;;1.40;;
44816;SDS011;30529;53.570;9.964;2022-08-01T14:52:42;7.73;;;1.50;;
44816;SDS011;30529;53.570;9.964;2022-08-01T14:55:09;5.27;;;1.57;;
44816;SDS011;30529;53.570;9.964;2022-08-01T14:57:37;8.57;;;1.80;;
44816;SDS011;30529;53.570;9.964;2022-08-01T15:00:05;6.60;;;1.40;;
44816;SDS011;30529;53.570;9.964;2022-08-01T15:02:36;5.90;;;1.30;;
44816;SDS011;30529;53.570;9.964;2022-08-01T15:05:03;4.87;;;1.40;;
44816;SDS011;30529;53.570;9.964;2022-08-01T15:07:29;4.70;;;1.20;;
44816;SDS011;30529;53.570;9.964;2022-08-01T15:09:55;5.67;;;2.20;;
44816;SDS011;30529;53.570;9.964;2022-08-01T15:12:21;5.90;;;1.73;;
44816;SDS011;30529;53.570;9.964;2022-08-01T15:14:48;5.57;;;1.47;;
44816;SDS011;30529;53.570;9.964;2022-08-01T15:17:17;7.47;;;1.60;;
44816;SDS011;30529;53.570;9.964;2022-08-01T15:19:47;6.63;;;1.50;;
44816;SDS011;30529;53.570;9.964;2022-08-01T15:22:14;8.07;;;1.47;;
44816;SDS011;30529;53.570;9.964;2022-08-01T15:24:41;4.83;;;1.23;;
44816;SDS011;30529;53.570;9.964;2022-08-01T15:27:07;8.33;;;1.80;;
44816;SDS011;30529;53.570;9.964;2022-08-01T15:29:34;6.37;;;1.60;;
44816;SDS011;30529;53.570;9.964;2022-08-01T15:32:01;6.03;;;1.60;;
44816;SDS011;30529;53.570;9.964;2022-08-01T15:34:28;5.37;;;1.40;;
44816;SDS011;30529;53.570;9.964;2022-08-01T15:36:55;4.37;;;1.63;;